Mount Vernon, WA

4:42 PM PDT on September 21, 2014 (GMT -0700)
Maddox Creek | Change Station
CLOSE
Current Station
Personal Weather Station
Location: Mount Vernon, WA
Elevation: 404 ft
Nearby Weather Stations

Elev 404 ft 48.41 °N, 122.30 °W | Updated 1 second ago

Clear
Clear
78.6 °F
Feels Like 80 °F
N
0.2
Wind Variable Wind from WNW
Gusts 2.5 mph

Today
High -- | Low -- °F
--% Chance of Precip.
Yesterday
High -- | Low -- °F
Precip. -- in
6:54 AM 7:08 PM
Waning Crescent, 5% visible
Pressure 29.84 in
Visibility 10.0 miles
Clouds Clear
Heat Index 80 °F
Dew Point 58 °F
Humidity 50%
Rainfall 0.01 in
Snow Depth 0 in , 0 in , 0 in
UV 2 out of 12
Pollen 1.60 out of 12
PM2.5 Good
Flu Activity Not available.
METAR KBVS 212340Z AUTO 26006KT 10SM CLR 23/14 A2984 RMK A01 P000

More Conditions Fewer Conditions

Pressure 29.84 in
Visibility 10.0 miles
Clouds Clear
Heat Index 80 °F
Dew Point 58 °F
Humidity 50%
Rainfall 0.01 in
Snow Depth 0 in , 0 in , 0 in
UV 2 out of 12
Pollen 1.60 out of 12
PM2.5 Good
Flu Activity Not available.
METAR KBVS 212340Z AUTO 26006KT 10SM CLR 23/14 A2984 RMK A01 P000

More Conditions Fewer Conditions

10-Day Weather Forecast

Almanac

Astronomy

Sep. 21, 2014 Rise Set
Actual Time 6:54 AM PDT 7:08 PM PDT
Civil Twilight 6:23 AM PDT 7:40 PM PDT
Nautical Twilight 5:46 AM PDT 8:16 PM PDT
Astronomical Twilight 5:08 AM PDT 8:55 PM PDT
Moon 4:24 AM PDT 5:54 PM PDT
Length of Visible Light 13h 16m
Length of Day
12h 14m
Tomorrow will be 3m 31s shorter.
Waning Crescent, 5% of the Moon is Illuminated
Today
Waning Crescent
Sep 24
New
Oct 1
First Quarter
Oct 8
Full
Oct 15
Last Quarter

Today's Extremes

State Highs State Lows

Community

WunderPhotos

Upload Photos

1,755,293 photos uploaded!

WunderBlogs® & News

Nearby

Air Quality

  Air Quality AQ Index Pollutant
Yesterday Good
PM2.5
Yesterday Good
OZONE
Current Good
PM2.5
Sunday Good
OZONE
Sunday Good
PM2.5
Monday Good
OZONE
Monday Good
PM2.5

Snow Depth

Station Depth Elevation
Sourdough Gulch 0 in 4000 ft
Park Creek Ridge 0 in 4600 ft
Stevens Pass 0 in 4070 ft
Quartz Peak 0 in 4700 ft
Moses Mountain 1 in 5300 ft

Earthquake Activity

City Distance Mag. Time & Date
No recent earthquake activity has been reported nearby.
Minimum magnitude displayed is 2.5.

Coastal Water Temperatures

Place Temperature
Port Townsend, WA 52.0 °F
Friday Harbor, WA 52.0 °F
Port Angeles, WA 53.1 °F

Nearby Weather Stations